sensor_id;sensor_type;location;lat;lon;timestamp;P1;durP1;ratioP1;P2;durP2;ratioP2
2710;SDS011;20721;47.402;8.550;2023-02-24T00:00:29;12.67;;;12.59;;
2710;SDS011;20721;47.402;8.550;2023-02-24T00:01:22;13.34;;;13.34;;
2710;SDS011;20721;47.402;8.550;2023-02-24T00:02:19;13.34;;;13.34;;
2710;SDS011;20721;47.402;8.550;2023-02-24T00:03:20;13.08;;;13.08;;
2710;SDS011;20721;47.402;8.550;2023-02-24T00:05:19;12.37;;;12.37;;
2710;SDS011;20721;47.402;8.550;2023-02-24T00:06:22;12.76;;;12.71;;
2710;SDS011;20721;47.402;8.550;2023-02-24T00:07:20;12.28;;;12.28;;
2710;SDS011;20721;47.402;8.550;2023-02-24T00:10:20;11.93;;;11.89;;
2710;SDS011;20721;47.402;8.550;2023-02-24T00:11:21;12.63;;;12.58;;
2710;SDS011;20721;47.402;8.550;2023-02-24T00:12:21;12.71;;;12.71;;
2710;SDS011;20721;47.402;8.550;2023-02-24T00:13:21;12.61;;;12.59;;
2710;SDS011;20721;47.402;8.550;2023-02-24T00:15:19;11.95;;;11.95;;
2710;SDS011;20721;47.402;8.550;2023-02-24T00:16:21;13.29;;;13.29;;
2710;SDS011;20721;47.402;8.550;2023-02-24T00:17:20;12.50;;;12.50;;
2710;SDS011;20721;47.402;8.550;2023-02-24T00:18:19;13.28;;;13.22;;
2710;SDS011;20721;47.402;8.550;2023-02-24T00:19:23;12.90;;;12.90;;
2710;SDS011;20721;47.402;8.550;2023-02-24T00:20:23;13.17;;;13.08;;
2710;SDS011;20721;47.402;8.550;2023-02-24T00:21:23;12.70;;;12.62;;
2710;SDS011;20721;47.402;8.550;2023-02-24T00:22:19;13.64;;;13.63;;
2710;SDS011;20721;47.402;8.550;2023-02-24T00:23:19;14.30;;;14.23;;
2710;SDS011;20721;47.402;8.550;2023-02-24T00:24:20;12.69;;;12.65;;
2710;SDS011;20721;47.402;8.550;2023-02-24T00:25:21;13.71;;;13.65;;
2710;SDS011;20721;47.402;8.550;2023-02-24T00:26:20;12.62;;;12.54;;
2710;SDS011;20721;47.402;8.550;2023-02-24T00:27:21;13.02;;;13.02;;
2710;SDS011;20721;47.402;8.550;2023-02-24T00:28:23;12.41;;;12.36;;
2710;SDS011;20721;47.402;8.550;2023-02-24T00:29:20;11.90;;;11.89;;
2710;SDS011;20721;47.402;8.550;2023-02-24T00:30:21;12.84;;;12.79;;
2710;SDS011;20721;47.402;8.550;2023-02-24T00:31:26;13.21;;;13.14;;
2710;SDS011;20721;47.402;8.550;2023-02-24T00:33:21;12.31;;;12.28;;
2710;SDS011;20721;47.402;8.550;2023-02-24T00:34:21;11.51;;;11.51;;
2710;SDS011;20721;47.402;8.550;2023-02-24T00:35:19;11.89;;;11.89;;
2710;SDS011;20721;47.402;8.550;2023-02-24T00:36:21;13.01;;;13.01;;
2710;SDS011;20721;47.402;8.550;2023-02-24T00:37:19;12.51;;;12.51;;
2710;SDS011;20721;47.402;8.550;2023-02-24T00:38:22;12.41;;;12.34;;
2710;SDS011;20721;47.402;8.550;2023-02-24T00:39:19;12.30;;;12.26;;
2710;SDS011;20721;47.402;8.550;2023-02-24T00:40:20;12.11;;;12.04;;
2710;SDS011;20721;47.402;8.550;2023-02-24T00:41:23;12.33;;;12.29;;
2710;SDS011;20721;47.402;8.550;2023-02-24T00:42:20;12.46;;;12.46;;
2710;SDS011;20721;47.402;8.550;2023-02-24T00:43:21;12.04;;;12.04;;
2710;SDS011;20721;47.402;8.550;2023-02-24T00:45:19;12.02;;;11.99;;
2710;SDS011;20721;47.402;8.550;2023-02-24T00:47:20;12.18;;;12.15;;
2710;SDS011;20721;47.402;8.550;2023-02-24T00:48:19;12.27;;;12.25;;
2710;SDS011;20721;47.402;8.550;2023-02-24T00:49:22;12.26;;;12.22;;
2710;SDS011;20721;47.402;8.550;2023-02-24T00:50:20;11.16;;;11.11;;
2710;SDS011;20721;47.402;8.550;2023-02-24T00:51:22;12.83;;;12.77;;
2710;SDS011;20721;47.402;8.550;2023-02-24T00:52:23;12.00;;;11.90;;
2710;SDS011;20721;47.402;8.550;2023-02-24T00:53:19;11.54;;;11.48;;
2710;SDS011;20721;47.402;8.550;2023-02-24T00:54:24;11.47;;;11.38;;
2710;SDS011;20721;47.402;8.550;2023-02-24T00:55:23;13.39;;;13.31;;
2710;SDS011;20721;47.402;8.550;2023-02-24T00:56:24;11.59;;;11.59;;
2710;SDS011;20721;47.402;8.550;2023-02-24T00:57:20;13.06;;;12.99;;
2710;SDS011;20721;47.402;8.550;2023-02-24T00:58:19;13.04;;;12.92;;
2710;SDS011;20721;47.402;8.550;2023-02-24T01:01:23;10.47;;;10.44;;
2710;SDS011;20721;47.402;8.550;2023-02-24T01:02:20;12.14;;;12.09;;
2710;SDS011;20721;47.402;8.550;2023-02-24T01:03:19;11.81;;;11.80;;
2710;SDS011;20721;47.402;8.550;2023-02-24T01:04:21;12.43;;;12.43;;
2710;SDS011;20721;47.402;8.550;2023-02-24T01:05:21;13.32;;;13.25;;
2710;SDS011;20721;47.402;8.550;2023-02-24T01:06:23;13.32;;;13.22;;
2710;SDS011;20721;47.402;8.550;2023-02-24T01:07:20;12.59;;;12.49;;
2710;SDS011;20721;47.402;8.550;2023-02-24T01:08:19;12.88;;;12.82;;
2710;SDS011;20721;47.402;8.550;2023-02-24T01:09:26;13.49;;;13.49;;
2710;SDS011;20721;47.402;8.550;2023-02-24T01:10:21;13.19;;;13.11;;
2710;SDS011;20721;47.402;8.550;2023-02-24T01:11:32;12.27;;;12.27;;
2710;SDS011;20721;47.402;8.550;2023-02-24T01:12:29;12.00;;;12.00;;
2710;SDS011;20721;47.402;8.550;2023-02-24T01:13:19;13.63;;;13.63;;
2710;SDS011;20721;47.402;8.550;2023-02-24T01:14:24;13.06;;;13.01;;
2710;SDS011;20721;47.402;8.550;2023-02-24T01:18:19;13.13;;;13.08;;
2710;SDS011;20721;47.402;8.550;2023-02-24T01:19:21;14.23;;;14.21;;
2710;SDS011;20721;47.402;8.550;2023-02-24T01:20:26;13.77;;;13.66;;
2710;SDS011;20721;47.402;8.550;2023-02-24T01:21:24;13.43;;;13.43;;
2710;SDS011;20721;47.402;8.550;2023-02-24T01:22:22;13.55;;;13.48;;
2710;SDS011;20721;47.402;8.550;2023-02-24T01:23:20;13.58;;;13.39;;
2710;SDS011;20721;47.402;8.550;2023-02-24T01:24:20;13.50;;;13.44;;
2710;SDS011;20721;47.402;8.550;2023-02-24T01:25:20;13.37;;;13.35;;
2710;SDS011;20721;47.402;8.550;2023-02-24T01:26:20;13.40;;;13.40;;
2710;SDS011;20721;47.402;8.550;2023-02-24T01:27:21;14.21;;;14.21;;
2710;SDS011;20721;47.402;8.550;2023-02-24T01:28:20;13.63;;;13.59;;
2710;SDS011;20721;47.402;8.550;2023-02-24T01:30:24;14.38;;;14.36;;
2710;SDS011;20721;47.402;8.550;2023-02-24T01:31:20;13.33;;;13.23;;
2710;SDS011;20721;47.402;8.550;2023-02-24T01:32:23;13.95;;;13.85;;
2710;SDS011;20721;47.402;8.550;2023-02-24T01:33:23;15.04;;;14.82;;
2710;SDS011;20721;47.402;8.550;2023-02-24T01:34:20;13.34;;;13.24;;
2710;SDS011;20721;47.402;8.550;2023-02-24T01:36:23;13.63;;;13.63;;
2710;SDS011;20721;47.402;8.550;2023-02-24T01:37:19;13.06;;;13.06;;
2710;SDS011;20721;47.402;8.550;2023-02-24T01:38:20;12.80;;;12.77;;
2710;SDS011;20721;47.402;8.550;2023-02-24T01:40:22;13.69;;;13.64;;
2710;SDS011;20721;47.402;8.550;2023-02-24T01:41:21;14.11;;;14.10;;
2710;SDS011;20721;47.402;8.550;2023-02-24T01:43:21;13.51;;;13.46;;
2710;SDS011;20721;47.402;8.550;2023-02-24T01:46:22;13.63;;;13.53;;
2710;SDS011;20721;47.402;8.550;2023-02-24T01:47:20;13.45;;;13.44;;
2710;SDS011;20721;47.402;8.550;2023-02-24T01:48:21;13.68;;;13.57;;
2710;SDS011;20721;47.402;8.550;2023-02-24T01:50:24;13.72;;;13.72;;
2710;SDS011;20721;47.402;8.550;2023-02-24T01:51:21;14.66;;;14.66;;
2710;SDS011;20721;47.402;8.550;2023-02-24T01:53:20;12.96;;;12.96;;
2710;SDS011;20721;47.402;8.550;2023-02-24T01:54:22;12.54;;;12.54;;
2710;SDS011;20721;47.402;8.550;2023-02-24T01:55:25;13.40;;;13.40;;
2710;SDS011;20721;47.402;8.550;2023-02-24T01:58:23;13.24;;;13.24;;
2710;SDS011;20721;47.402;8.550;2023-02-24T01:59:19;14.62;;;14.57;;
2710;SDS011;20721;47.402;8.550;2023-02-24T02:00:21;13.55;;;13.53;;
2710;SDS011;20721;47.402;8.550;2023-02-24T02:01:20;14.35;;;14.34;;
2710;SDS011;20721;47.402;8.550;2023-02-24T02:02:20;14.27;;;14.27;;
2710;SDS011;20721;47.402;8.550;2023-02-24T02:03:24;13.57;;;13.48;;
2710;SDS011;20721;47.402;8.550;2023-02-24T02:05:20;14.47;;;14.37;;
2710;SDS011;20721;47.402;8.550;2023-02-24T02:06:21;14.10;;;14.10;;
2710;SDS011;20721;47.402;8.550;2023-02-24T02:07:22;13.69;;;13.69;;
2710;SDS011;20721;47.402;8.550;2023-02-24T02:08:20;13.64;;;13.59;;
2710;SDS011;20721;47.402;8.550;2023-02-24T02:09:20;13.20;;;13.18;;
2710;SDS011;20721;47.402;8.550;2023-02-24T02:10:21;13.69;;;13.64;;
2710;SDS011;20721;47.402;8.550;2023-02-24T02:11:21;13.54;;;13.54;;
2710;SDS011;20721;47.402;8.550;2023-02-24T02:12:20;13.35;;;13.33;;
2710;SDS011;20721;47.402;8.550;2023-02-24T02:13:24;13.88;;;13.77;;
2710;SDS011;20721;47.402;8.550;2023-02-24T02:14:20;13.49;;;13.43;;
2710;SDS011;20721;47.402;8.550;2023-02-24T02:15:23;14.18;;;14.18;;
2710;SDS011;20721;47.402;8.550;2023-02-24T02:18:33;15.14;;;15.10;;
2710;SDS011;20721;47.402;8.550;2023-02-24T02:22:40;14.99;;;14.95;;
2710;SDS011;20721;47.402;8.550;2023-02-24T02:24:32;14.86;;;14.84;;
2710;SDS011;20721;47.402;8.550;2023-02-24T02:25:31;15.86;;;15.79;;
2710;SDS011;20721;47.402;8.550;2023-02-24T02:27:42;15.77;;;15.76;;
2710;SDS011;20721;47.402;8.550;2023-02-24T02:34:48;16.34;;;16.26;;
2710;SDS011;20721;47.402;8.550;2023-02-24T02:35:21;14.53;;;14.50;;
2710;SDS011;20721;47.402;8.550;2023-02-24T02:37:33;15.27;;;15.23;;
2710;SDS011;20721;47.402;8.550;2023-02-24T02:38:26;14.37;;;14.22;;
2710;SDS011;20721;47.402;8.550;2023-02-24T02:40:32;14.37;;;14.37;;
2710;SDS011;20721;47.402;8.550;2023-02-24T02:41:33;14.74;;;14.74;;
2710;SDS011;20721;47.402;8.550;2023-02-24T02:42:37;15.05;;;15.05;;
2710;SDS011;20721;47.402;8.550;2023-02-24T02:44:34;14.76;;;14.63;;
2710;SDS011;20721;47.402;8.550;2023-02-24T02:49:33;14.72;;;14.72;;
2710;SDS011;20721;47.402;8.550;2023-02-24T02:51:24;15.32;;;15.32;;
2710;SDS011;20721;47.402;8.550;2023-02-24T02:57:25;15.26;;;15.26;;
2710;SDS011;20721;47.402;8.550;2023-02-24T02:58:23;16.49;;;16.45;;
2710;SDS011;20721;47.402;8.550;2023-02-24T03:01:22;15.98;;;15.87;;
2710;SDS011;20721;47.402;8.550;2023-02-24T03:03:24;16.11;;;16.11;;
2710;SDS011;20721;47.402;8.550;2023-02-24T03:04:22;15.40;;;15.40;;
2710;SDS011;20721;47.402;8.550;2023-02-24T03:05:27;16.22;;;16.22;;
2710;SDS011;20721;47.402;8.550;2023-02-24T03:06:28;16.04;;;16.04;;
2710;SDS011;20721;47.402;8.550;2023-02-24T03:07:22;15.40;;;15.37;;
2710;SDS011;20721;47.402;8.550;2023-02-24T03:08:23;14.46;;;14.41;;
2710;SDS011;20721;47.402;8.550;2023-02-24T03:09:30;15.73;;;15.68;;
2710;SDS011;20721;47.402;8.550;2023-02-24T03:10:24;16.10;;;16.01;;
2710;SDS011;20721;47.402;8.550;2023-02-24T03:12:23;14.94;;;14.94;;
2710;SDS011;20721;47.402;8.550;2023-02-24T03:13:23;15.71;;;15.65;;
2710;SDS011;20721;47.402;8.550;2023-02-24T03:14:25;15.17;;;15.17;;
2710;SDS011;20721;47.402;8.550;2023-02-24T03:15:21;14.91;;;14.91;;
2710;SDS011;20721;47.402;8.550;2023-02-24T03:16:22;15.65;;;15.50;;
2710;SDS011;20721;47.402;8.550;2023-02-24T03:17:25;14.18;;;14.18;;
2710;SDS011;20721;47.402;8.550;2023-02-24T03:18:26;14.52;;;14.50;;
2710;SDS011;20721;47.402;8.550;2023-02-24T03:20:29;16.35;;;16.35;;
2710;SDS011;20721;47.402;8.550;2023-02-24T03:21:33;15.14;;;15.08;;
2710;SDS011;20721;47.402;8.550;2023-02-24T03:22:29;16.48;;;16.32;;
2710;SDS011;20721;47.402;8.550;2023-02-24T03:24:20;15.27;;;15.27;;
2710;SDS011;20721;47.402;8.550;2023-02-24T03:25:22;16.29;;;16.29;;
2710;SDS011;20721;47.402;8.550;2023-02-24T03:27:22;15.23;;;14.97;;
2710;SDS011;20721;47.402;8.550;2023-02-24T03:28:26;15.28;;;15.28;;
2710;SDS011;20721;47.402;8.550;2023-02-24T03:29:23;15.91;;;15.86;;
2710;SDS011;20721;47.402;8.550;2023-02-24T03:30:26;15.43;;;15.43;;
2710;SDS011;20721;47.402;8.550;2023-02-24T03:31:26;16.26;;;16.26;;
2710;SDS011;20721;47.402;8.550;2023-02-24T03:32:28;15.58;;;15.56;;
2710;SDS011;20721;47.402;8.550;2023-02-24T03:33:32;16.03;;;16.03;;
2710;SDS011;20721;47.402;8.550;2023-02-24T03:35:26;15.52;;;15.49;;
2710;SDS011;20721;47.402;8.550;2023-02-24T03:36:24;15.79;;;15.78;;
2710;SDS011;20721;47.402;8.550;2023-02-24T03:38:20;14.48;;;14.45;;
2710;SDS011;20721;47.402;8.550;2023-02-24T03:40:22;15.02;;;14.90;;
2710;SDS011;20721;47.402;8.550;2023-02-24T03:41:20;15.67;;;15.66;;
2710;SDS011;20721;47.402;8.550;2023-02-24T03:42:23;15.89;;;15.85;;
2710;SDS011;20721;47.402;8.550;2023-02-24T03:44:21;15.32;;;15.21;;
2710;SDS011;20721;47.402;8.550;2023-02-24T03:46:21;15.03;;;15.03;;
2710;SDS011;20721;47.402;8.550;2023-02-24T03:47:21;15.36;;;15.36;;
2710;SDS011;20721;47.402;8.550;2023-02-24T03:49:26;16.75;;;16.74;;
2710;SDS011;20721;47.402;8.550;2023-02-24T03:50:26;14.82;;;14.81;;
2710;SDS011;20721;47.402;8.550;2023-02-24T03:51:26;15.12;;;15.12;;
2710;SDS011;20721;47.402;8.550;2023-02-24T03:53:33;14.94;;;14.88;;
2710;SDS011;20721;47.402;8.550;2023-02-24T03:54:26;15.80;;;15.68;;
2710;SDS011;20721;47.402;8.550;2023-02-24T03:55:30;14.87;;;14.87;;
2710;SDS011;20721;47.402;8.550;2023-02-24T03:56:32;15.62;;;15.62;;
2710;SDS011;20721;47.402;8.550;2023-02-24T03:57:38;15.48;;;15.36;;
2710;SDS011;20721;47.402;8.550;2023-02-24T03:59:37;15.95;;;15.95;;
2710;SDS011;20721;47.402;8.550;2023-02-24T04:00:41;14.72;;;14.72;;
2710;SDS011;20721;47.402;8.550;2023-02-24T04:02:27;14.42;;;14.42;;
2710;SDS011;20721;47.402;8.550;2023-02-24T04:05:25;15.90;;;15.82;;
2710;SDS011;20721;47.402;8.550;2023-02-24T04:08:20;16.10;;;16.10;;
2710;SDS011;20721;47.402;8.550;2023-02-24T04:12:29;15.15;;;15.08;;
2710;SDS011;20721;47.402;8.550;2023-02-24T04:14:28;16.05;;;16.05;;
2710;SDS011;20721;47.402;8.550;2023-02-24T04:15:26;14.31;;;14.31;;
2710;SDS011;20721;47.402;8.550;2023-02-24T04:16:30;15.63;;;15.62;;
2710;SDS011;20721;47.402;8.550;2023-02-24T04:17:29;15.98;;;15.84;;
2710;SDS011;20721;47.402;8.550;2023-02-24T04:18:22;15.04;;;14.92;;
2710;SDS011;20721;47.402;8.550;2023-02-24T04:19:26;13.65;;;13.64;;
2710;SDS011;20721;47.402;8.550;2023-02-24T04:20:28;14.05;;;13.99;;
2710;SDS011;20721;47.402;8.550;2023-02-24T04:21:20;14.49;;;14.49;;
2710;SDS011;20721;47.402;8.550;2023-02-24T04:22:22;14.87;;;14.87;;
2710;SDS011;20721;47.402;8.550;2023-02-24T04:23:23;16.33;;;16.30;;
2710;SDS011;20721;47.402;8.550;2023-02-24T04:24:27;15.34;;;15.26;;
2710;SDS011;20721;47.402;8.550;2023-02-24T04:25:24;16.32;;;16.25;;
2710;SDS011;20721;47.402;8.550;2023-02-24T04:26:23;16.19;;;16.19;;
2710;SDS011;20721;47.402;8.550;2023-02-24T04:27:21;16.30;;;16.30;;
2710;SDS011;20721;47.402;8.550;2023-02-24T04:28:21;15.72;;;15.69;;
2710;SDS011;20721;47.402;8.550;2023-02-24T04:30:21;15.57;;;15.57;;
2710;SDS011;20721;47.402;8.550;2023-02-24T04:31:27;16.19;;;16.19;;
2710;SDS011;20721;47.402;8.550;2023-02-24T04:32:23;16.11;;;16.10;;
2710;SDS011;20721;47.402;8.550;2023-02-24T04:34:21;16.99;;;16.99;;
2710;SDS011;20721;47.402;8.550;2023-02-24T04:35:24;15.99;;;15.99;;
2710;SDS011;20721;47.402;8.550;2023-02-24T04:37:20;16.29;;;16.29;;
2710;SDS011;20721;47.402;8.550;2023-02-24T04:38:20;15.61;;;15.55;;
2710;SDS011;20721;47.402;8.550;2023-02-24T04:39:22;15.90;;;15.90;;
2710;SDS011;20721;47.402;8.550;2023-02-24T04:41:21;15.61;;;15.42;;
2710;SDS011;20721;47.402;8.550;2023-02-24T04:43:20;15.35;;;15.25;;
2710;SDS011;20721;47.402;8.550;2023-02-24T04:44:20;15.66;;;15.59;;
2710;SDS011;20721;47.402;8.550;2023-02-24T04:45:24;15.86;;;15.86;;
2710;SDS011;20721;47.402;8.550;2023-02-24T04:46:22;15.54;;;15.54;;
2710;SDS011;20721;47.402;8.550;2023-02-24T04:51:20;14.08;;;14.08;;
2710;SDS011;20721;47.402;8.550;2023-02-24T04:53:22;13.81;;;13.81;;
2710;SDS011;20721;47.402;8.550;2023-02-24T04:56:20;12.99;;;12.99;;
2710;SDS011;20721;47.402;8.550;2023-02-24T04:58:22;13.80;;;13.80;;
2710;SDS011;20721;47.402;8.550;2023-02-24T04:59:21;14.00;;;14.00;;
2710;SDS011;20721;47.402;8.550;2023-02-24T05:00:30;14.21;;;14.21;;
2710;SDS011;20721;47.402;8.550;2023-02-24T05:01:20;13.29;;;13.29;;
2710;SDS011;20721;47.402;8.550;2023-02-24T05:02:22;13.48;;;13.48;;
2710;SDS011;20721;47.402;8.550;2023-02-24T05:03:21;13.31;;;13.31;;
2710;SDS011;20721;47.402;8.550;2023-02-24T05:04:21;13.74;;;13.74;;
2710;SDS011;20721;47.402;8.550;2023-02-24T05:06:24;13.90;;;13.90;;
2710;SDS011;20721;47.402;8.550;2023-02-24T05:07:21;13.67;;;13.67;;
2710;SDS011;20721;47.402;8.550;2023-02-24T05:08:20;13.60;;;13.56;;
2710;SDS011;20721;47.402;8.550;2023-02-24T05:09:24;12.95;;;12.95;;
2710;SDS011;20721;47.402;8.550;2023-02-24T05:11:23;13.77;;;13.77;;
2710;SDS011;20721;47.402;8.550;2023-02-24T05:12:20;12.84;;;12.84;;
2710;SDS011;20721;47.402;8.550;2023-02-24T05:13:24;13.33;;;13.33;;
2710;SDS011;20721;47.402;8.550;2023-02-24T05:14:24;12.44;;;12.44;;
2710;SDS011;20721;47.402;8.550;2023-02-24T05:15:21;13.65;;;13.65;;
2710;SDS011;20721;47.402;8.550;2023-02-24T05:16:22;13.25;;;13.25;;
2710;SDS011;20721;47.402;8.550;2023-02-24T05:17:22;14.07;;;14.07;;
2710;SDS011;20721;47.402;8.550;2023-02-24T05:18:24;13.70;;;13.70;;
2710;SDS011;20721;47.402;8.550;2023-02-24T05:19:30;12.95;;;12.95;;
2710;SDS011;20721;47.402;8.550;2023-02-24T05:20:30;12.79;;;12.77;;
2710;SDS011;20721;47.402;8.550;2023-02-24T05:23:25;12.85;;;12.85;;
2710;SDS011;20721;47.402;8.550;2023-02-24T05:24:20;12.06;;;12.06;;
2710;SDS011;20721;47.402;8.550;2023-02-24T05:25:23;13.30;;;13.30;;
2710;SDS011;20721;47.402;8.550;2023-02-24T05:26:22;11.82;;;11.82;;
2710;SDS011;20721;47.402;8.550;2023-02-24T05:27:20;12.64;;;12.61;;
2710;SDS011;20721;47.402;8.550;2023-02-24T05:28:21;12.11;;;12.06;;
2710;SDS011;20721;47.402;8.550;2023-02-24T05:30:20;12.41;;;12.41;;
2710;SDS011;20721;47.402;8.550;2023-02-24T05:32:20;13.38;;;13.38;;
2710;SDS011;20721;47.402;8.550;2023-02-24T05:33:20;13.00;;;12.99;;
2710;SDS011;20721;47.402;8.550;2023-02-24T05:34:20;13.26;;;13.26;;
2710;SDS011;20721;47.402;8.550;2023-02-24T05:36:24;13.15;;;13.11;;
2710;SDS011;20721;47.402;8.550;2023-02-24T05:37:20;13.07;;;13.04;;
2710;SDS011;20721;47.402;8.550;2023-02-24T05:38:20;12.98;;;12.98;;
2710;SDS011;20721;47.402;8.550;2023-02-24T05:39:21;13.26;;;13.26;;
2710;SDS011;20721;47.402;8.550;2023-02-24T05:40:22;12.85;;;12.85;;
2710;SDS011;20721;47.402;8.550;2023-02-24T05:41:27;12.80;;;12.80;;
2710;SDS011;20721;47.402;8.550;2023-02-24T05:42:20;12.79;;;12.79;;
2710;SDS011;20721;47.402;8.550;2023-02-24T05:43:24;12.91;;;12.91;;
2710;SDS011;20721;47.402;8.550;2023-02-24T05:44:22;13.79;;;13.79;;
2710;SDS011;20721;47.402;8.550;2023-02-24T05:45:20;13.40;;;13.34;;
2710;SDS011;20721;47.402;8.550;2023-02-24T05:46:25;12.51;;;12.51;;
2710;SDS011;20721;47.402;8.550;2023-02-24T05:47:20;12.99;;;12.99;;
2710;SDS011;20721;47.402;8.550;2023-02-24T05:48:21;13.24;;;13.22;;
2710;SDS011;20721;47.402;8.550;2023-02-24T05:51:22;13.08;;;13.04;;
2710;SDS011;20721;47.402;8.550;2023-02-24T05:53:21;12.74;;;12.74;;
2710;SDS011;20721;47.402;8.550;2023-02-24T05:54:25;13.08;;;13.08;;
2710;SDS011;20721;47.402;8.550;2023-02-24T05:56:21;12.54;;;12.54;;
2710;SDS011;20721;47.402;8.550;2023-02-24T05:57:23;13.46;;;13.45;;
2710;SDS011;20721;47.402;8.550;2023-02-24T05:58:20;12.93;;;12.93;;
2710;SDS011;20721;47.402;8.550;2023-02-24T05:59:21;12.50;;;12.50;;
2710;SDS011;20721;47.402;8.550;2023-02-24T06:00:25;13.45;;;13.45;;
2710;SDS011;20721;47.402;8.550;2023-02-24T06:01:25;11.59;;;11.59;;
2710;SDS011;20721;47.402;8.550;2023-02-24T06:02:21;12.17;;;12.17;;
2710;SDS011;20721;47.402;8.550;2023-02-24T06:03:26;12.35;;;12.35;;
2710;SDS011;20721;47.402;8.550;2023-02-24T06:04:29;12.02;;;12.02;;
2710;SDS011;20721;47.402;8.550;2023-02-24T06:05:30;12.31;;;12.31;;
2710;SDS011;20721;47.402;8.550;2023-02-24T06:07:25;12.78;;;12.78;;
2710;SDS011;20721;47.402;8.550;2023-02-24T06:08:20;13.33;;;13.33;;
2710;SDS011;20721;47.402;8.550;2023-02-24T06:09:22;13.10;;;13.10;;
2710;SDS011;20721;47.402;8.550;2023-02-24T06:12:23;13.99;;;13.87;;
2710;SDS011;20721;47.402;8.550;2023-02-24T06:14:21;12.58;;;12.58;;
2710;SDS011;20721;47.402;8.550;2023-02-24T06:15:21;13.24;;;13.22;;
2710;SDS011;20721;47.402;8.550;2023-02-24T06:16:26;12.75;;;12.67;;
2710;SDS011;20721;47.402;8.550;2023-02-24T06:17:21;13.30;;;13.30;;
2710;SDS011;20721;47.402;8.550;2023-02-24T06:19:21;13.80;;;13.76;;
2710;SDS011;20721;47.402;8.550;2023-02-24T06:21:21;13.63;;;13.53;;
2710;SDS011;20721;47.402;8.550;2023-02-24T06:22:22;13.90;;;13.90;;
2710;SDS011;20721;47.402;8.550;2023-02-24T06:23:20;14.08;;;14.08;;
2710;SDS011;20721;47.402;8.550;2023-02-24T06:24:24;12.96;;;12.96;;
2710;SDS011;20721;47.402;8.550;2023-02-24T06:25:21;13.41;;;13.41;;
2710;SDS011;20721;47.402;8.550;2023-02-24T06:26:28;13.80;;;13.80;;
2710;SDS011;20721;47.402;8.550;2023-02-24T06:27:27;12.61;;;12.61;;
2710;SDS011;20721;47.402;8.550;2023-02-24T06:28:20;13.64;;;13.64;;
2710;SDS011;20721;47.402;8.550;2023-02-24T06:29:21;13.70;;;13.70;;
2710;SDS011;20721;47.402;8.550;2023-02-24T06:30:22;14.24;;;14.24;;
2710;SDS011;20721;47.402;8.550;2023-02-24T06:31:20;14.73;;;14.73;;
2710;SDS011;20721;47.402;8.550;2023-02-24T06:32:23;14.06;;;14.06;;
2710;SDS011;20721;47.402;8.550;2023-02-24T06:33:20;14.52;;;14.52;;
2710;SDS011;20721;47.402;8.550;2023-02-24T06:34:21;14.10;;;14.10;;
2710;SDS011;20721;47.402;8.550;2023-02-24T06:35:21;14.51;;;14.51;;
2710;SDS011;20721;47.402;8.550;2023-02-24T06:36:23;13.83;;;13.83;;
2710;SDS011;20721;47.402;8.550;2023-02-24T06:37:22;14.42;;;14.21;;
2710;SDS011;20721;47.402;8.550;2023-02-24T06:38:20;14.36;;;14.17;;
2710;SDS011;20721;47.402;8.550;2023-02-24T06:39:23;13.84;;;13.73;;
2710;SDS011;20721;47.402;8.550;2023-02-24T06:40:28;14.07;;;14.07;;
2710;SDS011;20721;47.402;8.550;2023-02-24T06:41:21;13.29;;;13.29;;
2710;SDS011;20721;47.402;8.550;2023-02-24T06:42:21;14.62;;;14.48;;
2710;SDS011;20721;47.402;8.550;2023-02-24T06:43:20;14.45;;;14.45;;
2710;SDS011;20721;47.402;8.550;2023-02-24T06:44:20;13.60;;;13.60;;
2710;SDS011;20721;47.402;8.550;2023-02-24T06:45:22;14.45;;;14.45;;
2710;SDS011;20721;47.402;8.550;2023-02-24T06:46:21;13.17;;;13.16;;
2710;SDS011;20721;47.402;8.550;2023-02-24T06:47:23;14.50;;;14.44;;
2710;SDS011;20721;47.402;8.550;2023-02-24T06:48:20;15.09;;;15.01;;
2710;SDS011;20721;47.402;8.550;2023-02-24T06:49:22;13.80;;;13.80;;
2710;SDS011;20721;47.402;8.550;2023-02-24T06:50:21;14.74;;;14.74;;
2710;SDS011;20721;47.402;8.550;2023-02-24T06:52:20;15.29;;;15.29;;
2710;SDS011;20721;47.402;8.550;2023-02-24T06:54:22;14.71;;;14.71;;
2710;SDS011;20721;47.402;8.550;2023-02-24T06:57:21;14.36;;;14.32;;
2710;SDS011;20721;47.402;8.550;2023-02-24T06:58:26;13.66;;;13.66;;
2710;SDS011;20721;47.402;8.550;2023-02-24T06:59:22;14.98;;;14.98;;
2710;SDS011;20721;47.402;8.550;2023-02-24T07:00:27;14.25;;;14.25;;
2710;SDS011;20721;47.402;8.550;2023-02-24T07:01:24;13.39;;;13.29;;
2710;SDS011;20721;47.402;8.550;2023-02-24T07:02:20;14.66;;;14.66;;
2710;SDS011;20721;47.402;8.550;2023-02-24T07:03:25;15.22;;;15.03;;
2710;SDS011;20721;47.402;8.550;2023-02-24T07:04:21;14.31;;;14.31;;
2710;SDS011;20721;47.402;8.550;2023-02-24T07:05:23;13.42;;;13.42;;
2710;SDS011;20721;47.402;8.550;2023-02-24T07:06:31;14.01;;;13.97;;
2710;SDS011;20721;47.402;8.550;2023-02-24T07:07:23;13.45;;;13.34;;
2710;SDS011;20721;47.402;8.550;2023-02-24T07:08:22;13.93;;;13.80;;
2710;SDS011;20721;47.402;8.550;2023-02-24T07:09:24;12.81;;;12.80;;
2710;SDS011;20721;47.402;8.550;2023-02-24T07:10:21;14.26;;;14.06;;
2710;SDS011;20721;47.402;8.550;2023-02-24T07:11:23;13.75;;;13.75;;
2710;SDS011;20721;47.402;8.550;2023-02-24T07:12:21;13.52;;;13.52;;
2710;SDS011;20721;47.402;8.550;2023-02-24T07:13:23;14.30;;;14.30;;
2710;SDS011;20721;47.402;8.550;2023-02-24T07:14:23;14.17;;;14.17;;
2710;SDS011;20721;47.402;8.550;2023-02-24T07:15:22;14.97;;;14.97;;
2710;SDS011;20721;47.402;8.550;2023-02-24T07:16:21;14.66;;;14.66;;
2710;SDS011;20721;47.402;8.550;2023-02-24T07:17:23;14.42;;;14.42;;
2710;SDS011;20721;47.402;8.550;2023-02-24T07:19:25;15.44;;;15.33;;
2710;SDS011;20721;47.402;8.550;2023-02-24T07:20:30;15.23;;;15.16;;
2710;SDS011;20721;47.402;8.550;2023-02-24T07:21:21;16.59;;;16.56;;
2710;SDS011;20721;47.402;8.550;2023-02-24T07:22:23;15.88;;;15.88;;
2710;SDS011;20721;47.402;8.550;2023-02-24T07:23:21;14.51;;;14.50;;
2710;SDS011;20721;47.402;8.550;2023-02-24T07:24:25;15.14;;;15.14;;
2710;SDS011;20721;47.402;8.550;2023-02-24T07:25:32;15.30;;;15.30;;
2710;SDS011;20721;47.402;8.550;2023-02-24T07:26:23;15.66;;;15.66;;
2710;SDS011;20721;47.402;8.550;2023-02-24T07:27:22;17.08;;;17.08;;
2710;SDS011;20721;47.402;8.550;2023-02-24T07:28:21;15.28;;;15.28;;
2710;SDS011;20721;47.402;8.550;2023-02-24T07:29:21;16.08;;;16.08;;
2710;SDS011;20721;47.402;8.550;2023-02-24T07:30:21;16.92;;;16.78;;
2710;SDS011;20721;47.402;8.550;2023-02-24T07:31:23;16.41;;;16.40;;
2710;SDS011;20721;47.402;8.550;2023-02-24T07:32:21;16.79;;;16.79;;
2710;SDS011;20721;47.402;8.550;2023-02-24T07:33:21;15.25;;;15.22;;
2710;SDS011;20721;47.402;8.550;2023-02-24T07:34:24;16.80;;;16.80;;
2710;SDS011;20721;47.402;8.550;2023-02-24T07:35:21;16.86;;;16.77;;
2710;SDS011;20721;47.402;8.550;2023-02-24T07:36:25;16.29;;;16.29;;
2710;SDS011;20721;47.402;8.550;2023-02-24T07:37:21;16.21;;;16.19;;
2710;SDS011;20721;47.402;8.550;2023-02-24T07:38:26;16.92;;;16.85;;
2710;SDS011;20721;47.402;8.550;2023-02-24T07:39:21;15.70;;;15.70;;
2710;SDS011;20721;47.402;8.550;2023-02-24T07:40:27;15.21;;;15.20;;
2710;SDS011;20721;47.402;8.550;2023-02-24T07:41:22;15.61;;;15.55;;
2710;SDS011;20721;47.402;8.550;2023-02-24T07:42:22;15.70;;;15.70;;
2710;SDS011;20721;47.402;8.550;2023-02-24T07:43:20;15.36;;;15.36;;